sensor_id;sensor_type;location;lat;lon;timestamp;P1;durP1;ratioP1;P2;durP2;ratioP2
51800;SDS011;37855;53.204;6.568;2023-06-26T00:01:40;10.95;;;6.55;;
51800;SDS011;37855;53.204;6.568;2023-06-26T00:04:06;8.93;;;6.00;;
51800;SDS011;37855;53.204;6.568;2023-06-26T00:06:35;9.68;;;6.32;;
51800;SDS011;37855;53.204;6.568;2023-06-26T00:09:01;9.55;;;6.43;;
51800;SDS011;37855;53.204;6.568;2023-06-26T00:11:26;14.63;;;7.10;;
51800;SDS011;37855;53.204;6.568;2023-06-26T00:13:52;8.68;;;6.40;;
51800;SDS011;37855;53.204;6.568;2023-06-26T00:16:18;9.33;;;6.33;;
51800;SDS011;37855;53.204;6.568;2023-06-26T00:18:44;10.00;;;6.57;;
51800;SDS011;37855;53.204;6.568;2023-06-26T00:21:10;10.43;;;6.93;;
51800;SDS011;37855;53.204;6.568;2023-06-26T00:23:35;9.77;;;6.50;;
51800;SDS011;37855;53.204;6.568;2023-06-26T00:26:02;8.95;;;6.55;;
51800;SDS011;37855;53.204;6.568;2023-06-26T00:28:29;10.40;;;6.20;;
51800;SDS011;37855;53.204;6.568;2023-06-26T00:30:55;8.77;;;6.47;;
51800;SDS011;37855;53.204;6.568;2023-06-26T00:33:20;9.70;;;6.35;;
51800;SDS011;37855;53.204;6.568;2023-06-26T00:35:47;10.65;;;6.90;;
51800;SDS011;37855;53.204;6.568;2023-06-26T00:38:12;9.13;;;5.93;;
51800;SDS011;37855;53.204;6.568;2023-06-26T00:40:38;8.63;;;6.10;;
51800;SDS011;37855;53.204;6.568;2023-06-26T00:43:04;10.60;;;6.53;;
51800;SDS011;37855;53.204;6.568;2023-06-26T00:45:29;10.07;;;6.33;;
51800;SDS011;37855;53.204;6.568;2023-06-26T00:47:55;10.32;;;6.65;;
51800;SDS011;37855;53.204;6.568;2023-06-26T00:50:21;11.10;;;6.90;;
51800;SDS011;37855;53.204;6.568;2023-06-26T00:52:47;10.15;;;6.85;;
51800;SDS011;37855;53.204;6.568;2023-06-26T00:55:13;9.43;;;6.37;;
51800;SDS011;37855;53.204;6.568;2023-06-26T00:57:39;12.95;;;6.90;;
51800;SDS011;37855;53.204;6.568;2023-06-26T01:00:05;9.70;;;6.90;;
51800;SDS011;37855;53.204;6.568;2023-06-26T01:02:31;15.07;;;7.20;;
51800;SDS011;37855;53.204;6.568;2023-06-26T01:05:01;10.52;;;7.15;;
51800;SDS011;37855;53.204;6.568;2023-06-26T01:07:31;10.23;;;6.88;;
51800;SDS011;37855;53.204;6.568;2023-06-26T01:10:02;8.95;;;7.15;;
51800;SDS011;37855;53.204;6.568;2023-06-26T01:12:30;10.97;;;7.27;;
51800;SDS011;37855;53.204;6.568;2023-06-26T01:14:57;10.00;;;6.82;;
51800;SDS011;37855;53.204;6.568;2023-06-26T01:17:23;8.95;;;6.50;;
51800;SDS011;37855;53.204;6.568;2023-06-26T01:19:49;8.73;;;6.35;;
51800;SDS011;37855;53.204;6.568;2023-06-26T01:27:54;11.95;;;7.20;;
51800;SDS011;37855;53.204;6.568;2023-06-26T01:30:21;9.80;;;7.05;;
51800;SDS011;37855;53.204;6.568;2023-06-26T01:32:48;9.23;;;6.60;;
51800;SDS011;37855;53.204;6.568;2023-06-26T01:35:14;9.60;;;6.90;;
51800;SDS011;37855;53.204;6.568;2023-06-26T01:37:41;10.85;;;6.90;;
51800;SDS011;37855;53.204;6.568;2023-06-26T01:40:06;10.10;;;6.70;;
51800;SDS011;37855;53.204;6.568;2023-06-26T01:42:33;10.23;;;6.85;;
51800;SDS011;37855;53.204;6.568;2023-06-26T01:45:05;8.57;;;6.87;;
51800;SDS011;37855;53.204;6.568;2023-06-26T01:47:37;12.13;;;8.00;;
51800;SDS011;37855;53.204;6.568;2023-06-26T01:50:06;11.57;;;6.93;;
51800;SDS011;37855;53.204;6.568;2023-06-26T01:52:53;10.82;;;7.65;;
51800;SDS011;37855;53.204;6.568;2023-06-26T01:55:38;9.70;;;7.30;;
51800;SDS011;37855;53.204;6.568;2023-06-26T01:58:11;9.60;;;7.03;;
51800;SDS011;37855;53.204;6.568;2023-06-26T02:00:38;11.00;;;7.18;;
51800;SDS011;37855;53.204;6.568;2023-06-26T02:03:05;10.52;;;7.28;;
51800;SDS011;37855;53.204;6.568;2023-06-26T02:05:31;11.15;;;7.15;;
51800;SDS011;37855;53.204;6.568;2023-06-26T02:07:58;11.23;;;7.60;;
51800;SDS011;37855;53.204;6.568;2023-06-26T02:10:23;10.17;;;7.27;;
51800;SDS011;37855;53.204;6.568;2023-06-26T02:12:49;9.73;;;7.00;;
51800;SDS011;37855;53.204;6.568;2023-06-26T02:15:15;9.53;;;7.07;;
51800;SDS011;37855;53.204;6.568;2023-06-26T02:17:40;10.98;;;7.00;;
51800;SDS011;37855;53.204;6.568;2023-06-26T02:20:08;10.83;;;7.50;;
51800;SDS011;37855;53.204;6.568;2023-06-26T02:22:35;10.88;;;7.32;;
51800;SDS011;37855;53.204;6.568;2023-06-26T02:25:01;9.52;;;6.90;;
51800;SDS011;37855;53.204;6.568;2023-06-26T02:27:27;10.83;;;7.60;;
51800;SDS011;37855;53.204;6.568;2023-06-26T02:29:53;10.65;;;6.88;;
51800;SDS011;37855;53.204;6.568;2023-06-26T02:32:18;10.57;;;7.37;;
51800;SDS011;37855;53.204;6.568;2023-06-26T02:34:44;10.38;;;7.43;;
51800;SDS011;37855;53.204;6.568;2023-06-26T02:37:10;9.97;;;6.87;;
51800;SDS011;37855;53.204;6.568;2023-06-26T02:39:35;11.00;;;7.07;;
51800;SDS011;37855;53.204;6.568;2023-06-26T02:42:01;9.75;;;7.10;;
51800;SDS011;37855;53.204;6.568;2023-06-26T02:44:27;10.27;;;7.83;;
51800;SDS011;37855;53.204;6.568;2023-06-26T02:46:53;10.63;;;7.38;;
51800;SDS011;37855;53.204;6.568;2023-06-26T02:49:19;11.13;;;7.60;;
51800;SDS011;37855;53.204;6.568;2023-06-26T02:51:44;12.07;;;7.97;;
51800;SDS011;37855;53.204;6.568;2023-06-26T02:54:10;9.37;;;7.07;;
51800;SDS011;37855;53.204;6.568;2023-06-26T02:56:36;11.98;;;7.75;;
51800;SDS011;37855;53.204;6.568;2023-06-26T02:59:01;10.80;;;7.23;;
51800;SDS011;37855;53.204;6.568;2023-06-26T03:01:27;10.00;;;7.28;;
51800;SDS011;37855;53.204;6.568;2023-06-26T03:03:54;10.70;;;8.10;;
51800;SDS011;37855;53.204;6.568;2023-06-26T03:06:20;12.07;;;7.15;;
51800;SDS011;37855;53.204;6.568;2023-06-26T03:08:46;11.43;;;7.57;;
51800;SDS011;37855;53.204;6.568;2023-06-26T03:11:11;12.57;;;7.27;;
51800;SDS011;37855;53.204;6.568;2023-06-26T03:13:37;12.70;;;8.07;;
51800;SDS011;37855;53.204;6.568;2023-06-26T03:16:03;13.27;;;8.70;;
51800;SDS011;37855;53.204;6.568;2023-06-26T03:18:29;12.00;;;7.88;;
51800;SDS011;37855;53.204;6.568;2023-06-26T03:20:55;11.45;;;7.72;;
51800;SDS011;37855;53.204;6.568;2023-06-26T03:23:22;11.63;;;8.13;;
51800;SDS011;37855;53.204;6.568;2023-06-26T03:25:49;12.07;;;8.37;;
51800;SDS011;37855;53.204;6.568;2023-06-26T03:28:16;10.82;;;7.75;;
51800;SDS011;37855;53.204;6.568;2023-06-26T03:30:42;12.65;;;8.73;;
51800;SDS011;37855;53.204;6.568;2023-06-26T03:33:08;11.40;;;8.97;;
51800;SDS011;37855;53.204;6.568;2023-06-26T03:35:34;10.97;;;8.27;;
51800;SDS011;37855;53.204;6.568;2023-06-26T03:38:00;15.87;;;9.17;;
51800;SDS011;37855;53.204;6.568;2023-06-26T03:40:26;11.80;;;8.15;;
51800;SDS011;37855;53.204;6.568;2023-06-26T03:42:52;11.45;;;8.20;;
51800;SDS011;37855;53.204;6.568;2023-06-26T03:45:18;14.27;;;8.60;;
51800;SDS011;37855;53.204;6.568;2023-06-26T03:47:47;13.38;;;9.30;;
51800;SDS011;37855;53.204;6.568;2023-06-26T03:50:17;15.55;;;9.13;;
51800;SDS011;37855;53.204;6.568;2023-06-26T03:52:43;16.20;;;8.23;;
51800;SDS011;37855;53.204;6.568;2023-06-26T03:55:09;12.82;;;8.52;;
51800;SDS011;37855;53.204;6.568;2023-06-26T03:57:35;11.03;;;7.47;;
51800;SDS011;37855;53.204;6.568;2023-06-26T04:00:01;11.77;;;8.73;;
51800;SDS011;37855;53.204;6.568;2023-06-26T04:02:33;16.60;;;8.53;;
51800;SDS011;37855;53.204;6.568;2023-06-26T04:04:59;13.00;;;7.90;;
51800;SDS011;37855;53.204;6.568;2023-06-26T04:07:28;22.67;;;10.23;;
51800;SDS011;37855;53.204;6.568;2023-06-26T04:09:54;18.83;;;9.10;;
51800;SDS011;37855;53.204;6.568;2023-06-26T04:12:20;22.23;;;8.77;;
51800;SDS011;37855;53.204;6.568;2023-06-26T04:14:45;16.67;;;8.55;;
51800;SDS011;37855;53.204;6.568;2023-06-26T04:17:11;15.67;;;8.80;;
51800;SDS011;37855;53.204;6.568;2023-06-26T04:19:37;19.13;;;9.13;;
51800;SDS011;37855;53.204;6.568;2023-06-26T04:22:02;17.40;;;7.75;;
51800;SDS011;37855;53.204;6.568;2023-06-26T04:24:29;16.48;;;8.60;;
51800;SDS011;37855;53.204;6.568;2023-06-26T04:26:54;13.27;;;9.33;;
51800;SDS011;37855;53.204;6.568;2023-06-26T04:29:23;19.15;;;9.07;;
51800;SDS011;37855;53.204;6.568;2023-06-26T04:31:51;15.63;;;8.23;;
51800;SDS011;37855;53.204;6.568;2023-06-26T04:34:17;11.83;;;9.03;;
51800;SDS011;37855;53.204;6.568;2023-06-26T04:36:42;17.17;;;9.02;;
51800;SDS011;37855;53.204;6.568;2023-06-26T04:39:12;18.20;;;9.30;;
51800;SDS011;37855;53.204;6.568;2023-06-26T04:41:39;16.80;;;8.43;;
51800;SDS011;37855;53.204;6.568;2023-06-26T04:44:06;12.97;;;8.07;;
51800;SDS011;37855;53.204;6.568;2023-06-26T04:46:31;19.63;;;8.10;;
51800;SDS011;37855;53.204;6.568;2023-06-26T04:48:57;22.80;;;8.90;;
51800;SDS011;37855;53.204;6.568;2023-06-26T04:51:26;13.50;;;7.20;;
51800;SDS011;37855;53.204;6.568;2023-06-26T04:53:53;13.80;;;8.18;;
51800;SDS011;37855;53.204;6.568;2023-06-26T04:56:19;13.70;;;7.60;;
51800;SDS011;37855;53.204;6.568;2023-06-26T04:58:45;13.87;;;7.33;;
51800;SDS011;37855;53.204;6.568;2023-06-26T05:01:11;34.10;;;8.48;;
51800;SDS011;37855;53.204;6.568;2023-06-26T05:03:38;36.67;;;8.27;;
51800;SDS011;37855;53.204;6.568;2023-06-26T05:06:04;23.20;;;6.80;;
51800;SDS011;37855;53.204;6.568;2023-06-26T05:08:30;19.90;;;7.53;;
51800;SDS011;37855;53.204;6.568;2023-06-26T05:10:56;18.73;;;7.83;;
51800;SDS011;37855;53.204;6.568;2023-06-26T05:13:23;21.17;;;7.77;;
51800;SDS011;37855;53.204;6.568;2023-06-26T05:15:49;21.30;;;7.28;;
51800;SDS011;37855;53.204;6.568;2023-06-26T05:18:15;17.92;;;7.82;;
51800;SDS011;37855;53.204;6.568;2023-06-26T05:20:41;19.43;;;8.97;;
51800;SDS011;37855;53.204;6.568;2023-06-26T05:23:07;18.05;;;9.05;;
51800;SDS011;37855;53.204;6.568;2023-06-26T05:25:32;19.52;;;9.30;;
51800;SDS011;37855;53.204;6.568;2023-06-26T05:28:01;21.00;;;9.40;;
51800;SDS011;37855;53.204;6.568;2023-06-26T05:30:30;17.65;;;8.65;;
51800;SDS011;37855;53.204;6.568;2023-06-26T05:32:56;14.80;;;8.30;;
51800;SDS011;37855;53.204;6.568;2023-06-26T05:35:26;16.00;;;8.00;;
51800;SDS011;37855;53.204;6.568;2023-06-26T05:37:55;19.70;;;8.07;;
51800;SDS011;37855;53.204;6.568;2023-06-26T05:40:21;18.00;;;7.57;;
51800;SDS011;37855;53.204;6.568;2023-06-26T05:42:47;15.90;;;6.47;;
51800;SDS011;37855;53.204;6.568;2023-06-26T05:45:13;17.30;;;6.40;;
51800;SDS011;37855;53.204;6.568;2023-06-26T05:47:39;15.45;;;6.03;;
51800;SDS011;37855;53.204;6.568;2023-06-26T05:50:05;16.17;;;6.27;;
51800;SDS011;37855;53.204;6.568;2023-06-26T05:52:32;15.10;;;5.80;;
51800;SDS011;37855;53.204;6.568;2023-06-26T05:54:58;19.10;;;6.38;;
51800;SDS011;37855;53.204;6.568;2023-06-26T05:57:26;16.90;;;5.80;;
51800;SDS011;37855;53.204;6.568;2023-06-26T05:59:53;15.70;;;5.00;;
51800;SDS011;37855;53.204;6.568;2023-06-26T06:02:18;15.47;;;4.83;;
51800;SDS011;37855;53.204;6.568;2023-06-26T06:04:44;14.38;;;5.60;;
51800;SDS011;37855;53.204;6.568;2023-06-26T06:07:11;18.00;;;5.28;;
51800;SDS011;37855;53.204;6.568;2023-06-26T06:09:37;15.15;;;4.72;;
51800;SDS011;37855;53.204;6.568;2023-06-26T06:12:03;17.10;;;4.63;;
51800;SDS011;37855;53.204;6.568;2023-06-26T06:14:33;14.15;;;4.70;;
51800;SDS011;37855;53.204;6.568;2023-06-26T06:17:01;13.93;;;4.10;;
51800;SDS011;37855;53.204;6.568;2023-06-26T06:19:26;15.07;;;4.75;;
51800;SDS011;37855;53.204;6.568;2023-06-26T06:21:52;15.67;;;4.30;;
51800;SDS011;37855;53.204;6.568;2023-06-26T06:24:19;20.58;;;4.03;;
51800;SDS011;37855;53.204;6.568;2023-06-26T06:26:45;15.65;;;3.88;;
51800;SDS011;37855;53.204;6.568;2023-06-26T06:29:11;16.37;;;4.30;;
51800;SDS011;37855;53.204;6.568;2023-06-26T06:31:38;12.57;;;3.67;;
51800;SDS011;37855;53.204;6.568;2023-06-26T06:34:03;14.60;;;3.75;;
51800;SDS011;37855;53.204;6.568;2023-06-26T06:36:29;12.53;;;3.80;;
51800;SDS011;37855;53.204;6.568;2023-06-26T06:38:55;12.67;;;4.07;;
51800;SDS011;37855;53.204;6.568;2023-06-26T06:41:20;15.10;;;3.80;;
51800;SDS011;37855;53.204;6.568;2023-06-26T06:43:46;14.73;;;3.20;;
51800;SDS011;37855;53.204;6.568;2023-06-26T06:46:12;10.83;;;2.80;;
51800;SDS011;37855;53.204;6.568;2023-06-26T06:48:37;13.85;;;2.95;;
51800;SDS011;37855;53.204;6.568;2023-06-26T06:51:03;11.90;;;2.87;;
51800;SDS011;37855;53.204;6.568;2023-06-26T06:53:29;12.25;;;3.03;;
51800;SDS011;37855;53.204;6.568;2023-06-26T06:55:56;8.63;;;2.67;;
51800;SDS011;37855;53.204;6.568;2023-06-26T06:58:22;11.48;;;2.83;;
51800;SDS011;37855;53.204;6.568;2023-06-26T07:00:48;10.10;;;3.00;;
51800;SDS011;37855;53.204;6.568;2023-06-26T07:03:17;9.70;;;2.67;;
51800;SDS011;37855;53.204;6.568;2023-06-26T07:05:46;11.07;;;2.85;;
51800;SDS011;37855;53.204;6.568;2023-06-26T07:08:12;8.95;;;3.15;;
51800;SDS011;37855;53.204;6.568;2023-06-26T07:10:38;9.43;;;2.63;;
51800;SDS011;37855;53.204;6.568;2023-06-26T07:13:04;10.40;;;2.83;;
51800;SDS011;37855;53.204;6.568;2023-06-26T07:15:30;9.85;;;2.70;;
51800;SDS011;37855;53.204;6.568;2023-06-26T07:17:56;10.25;;;2.88;;
51800;SDS011;37855;53.204;6.568;2023-06-26T07:20:22;9.07;;;2.40;;
51800;SDS011;37855;53.204;6.568;2023-06-26T07:22:49;8.25;;;2.17;;
51800;SDS011;37855;53.204;6.568;2023-06-26T07:25:15;12.70;;;3.17;;
51800;SDS011;37855;53.204;6.568;2023-06-26T07:27:41;10.63;;;2.55;;
51800;SDS011;37855;53.204;6.568;2023-06-26T07:30:07;9.93;;;2.30;;
51800;SDS011;37855;53.204;6.568;2023-06-26T07:32:34;7.53;;;2.38;;
51800;SDS011;37855;53.204;6.568;2023-06-26T07:35:00;10.52;;;2.45;;
51800;SDS011;37855;53.204;6.568;2023-06-26T07:37:26;8.02;;;2.75;;
51800;SDS011;37855;53.204;6.568;2023-06-26T07:39:52;9.40;;;2.17;;
51800;SDS011;37855;53.204;6.568;2023-06-26T07:42:18;8.45;;;2.30;;
51800;SDS011;37855;53.204;6.568;2023-06-26T07:44:43;10.33;;;2.40;;
51800;SDS011;37855;53.204;6.568;2023-06-26T07:47:10;9.18;;;2.03;;
51800;SDS011;37855;53.204;6.568;2023-06-26T07:49:36;6.97;;;1.70;;
51800;SDS011;37855;53.204;6.568;2023-06-26T07:52:02;8.85;;;2.00;;
51800;SDS011;37855;53.204;6.568;2023-06-26T07:54:28;8.40;;;2.03;;
51800;SDS011;37855;53.204;6.568;2023-06-26T07:57:02;7.65;;;1.60;;
51800;SDS011;37855;53.204;6.568;2023-06-26T07:59:32;6.63;;;1.90;;
51800;SDS011;37855;53.204;6.568;2023-06-26T08:01:58;7.00;;;1.80;;
51800;SDS011;37855;53.204;6.568;2023-06-26T08:04:25;8.60;;;2.03;;
51800;SDS011;37855;53.204;6.568;2023-06-26T08:06:54;9.40;;;2.30;;
51800;SDS011;37855;53.204;6.568;2023-06-26T08:09:22;12.63;;;2.15;;
51800;SDS011;37855;53.204;6.568;2023-06-26T08:11:50;11.85;;;2.40;;
51800;SDS011;37855;53.204;6.568;2023-06-26T08:14:17;10.63;;;2.30;;
51800;SDS011;37855;53.204;6.568;2023-06-26T08:16:43;7.20;;;1.90;;
51800;SDS011;37855;53.204;6.568;2023-06-26T08:19:11;7.82;;;2.35;;
51800;SDS011;37855;53.204;6.568;2023-06-26T08:21:37;6.40;;;2.10;;
51800;SDS011;37855;53.204;6.568;2023-06-26T08:24:03;7.45;;;2.17;;
51800;SDS011;37855;53.204;6.568;2023-06-26T08:26:32;6.50;;;2.25;;
51800;SDS011;37855;53.204;6.568;2023-06-26T08:28:58;6.90;;;2.40;;
51800;SDS011;37855;53.204;6.568;2023-06-26T08:31:24;7.78;;;2.50;;
51800;SDS011;37855;53.204;6.568;2023-06-26T08:33:50;8.80;;;2.20;;
51800;SDS011;37855;53.204;6.568;2023-06-26T08:36:15;7.88;;;2.22;;
51800;SDS011;37855;53.204;6.568;2023-06-26T08:38:41;8.47;;;2.37;;
51800;SDS011;37855;53.204;6.568;2023-06-26T08:41:07;9.77;;;2.55;;
51800;SDS011;37855;53.204;6.568;2023-06-26T08:43:34;9.20;;;2.35;;
51800;SDS011;37855;53.204;6.568;2023-06-26T08:46:00;6.82;;;2.10;;
51800;SDS011;37855;53.204;6.568;2023-06-26T08:48:26;8.18;;;2.40;;
51800;SDS011;37855;53.204;6.568;2023-06-26T08:50:56;7.40;;;2.53;;
51800;SDS011;37855;53.204;6.568;2023-06-26T08:56:06;6.80;;;2.50;;
51800;SDS011;37855;53.204;6.568;2023-06-26T08:58:33;8.48;;;2.55;;
51800;SDS011;37855;53.204;6.568;2023-06-26T09:01:01;6.05;;;2.03;;
51800;SDS011;37855;53.204;6.568;2023-06-26T09:03:27;7.47;;;2.20;;
51800;SDS011;37855;53.204;6.568;2023-06-26T09:05:54;9.43;;;2.40;;
51800;SDS011;37855;53.204;6.568;2023-06-26T09:08:19;7.07;;;2.28;;
51800;SDS011;37855;53.204;6.568;2023-06-26T09:10:45;6.83;;;2.17;;
51800;SDS011;37855;53.204;6.568;2023-06-26T09:13:11;7.65;;;2.55;;
51800;SDS011;37855;53.204;6.568;2023-06-26T09:15:37;6.90;;;2.40;;
51800;SDS011;37855;53.204;6.568;2023-06-26T09:18:04;8.15;;;2.55;;
51800;SDS011;37855;53.204;6.568;2023-06-26T09:20:30;6.38;;;2.00;;
51800;SDS011;37855;53.204;6.568;2023-06-26T09:23:00;8.02;;;2.45;;
51800;SDS011;37855;53.204;6.568;2023-06-26T09:25:26;8.77;;;2.55;;
51800;SDS011;37855;53.204;6.568;2023-06-26T09:27:52;7.90;;;2.50;;
51800;SDS011;37855;53.204;6.568;2023-06-26T09:30:19;9.52;;;2.45;;
51800;SDS011;37855;53.204;6.568;2023-06-26T09:32:45;7.47;;;2.40;;
51800;SDS011;37855;53.204;6.568;2023-06-26T09:35:11;5.75;;;2.17;;
51800;SDS011;37855;53.204;6.568;2023-06-26T09:37:37;7.73;;;2.60;;
51800;SDS011;37855;53.204;6.568;2023-06-26T09:40:03;9.27;;;2.55;;
51800;SDS011;37855;53.204;6.568;2023-06-26T09:42:30;8.15;;;2.40;;
51800;SDS011;37855;53.204;6.568;2023-06-26T09:44:56;8.38;;;2.55;;
51800;SDS011;37855;53.204;6.568;2023-06-26T09:47:22;7.43;;;2.33;;
51800;SDS011;37855;53.204;6.568;2023-06-26T09:49:51;8.60;;;2.10;;
51800;SDS011;37855;53.204;6.568;2023-06-26T09:52:25;7.97;;;2.40;;
51800;SDS011;37855;53.204;6.568;2023-06-26T09:55:07;7.13;;;2.53;;
51800;SDS011;37855;53.204;6.568;2023-06-26T09:57:35;7.73;;;2.60;;
51800;SDS011;37855;53.204;6.568;2023-06-26T10:00:02;6.78;;;2.28;;
51800;SDS011;37855;53.204;6.568;2023-06-26T10:02:29;6.80;;;2.92;;
51800;SDS011;37855;53.204;6.568;2023-06-26T10:04:54;8.35;;;3.05;;
51800;SDS011;37855;53.204;6.568;2023-06-26T10:07:20;9.00;;;2.70;;
51800;SDS011;37855;53.204;6.568;2023-06-26T10:09:47;7.70;;;2.75;;
51800;SDS011;37855;53.204;6.568;2023-06-26T10:12:28;6.57;;;3.05;;
51800;SDS011;37855;53.204;6.568;2023-06-26T10:14:58;7.27;;;2.63;;
51800;SDS011;37855;53.204;6.568;2023-06-26T10:17:30;7.70;;;2.38;;
51800;SDS011;37855;53.204;6.568;2023-06-26T10:20:02;7.00;;;2.67;;
51800;SDS011;37855;53.204;6.568;2023-06-26T10:22:29;9.55;;;2.65;;
51800;SDS011;37855;53.204;6.568;2023-06-26T10:24:59;5.53;;;2.72;;
51800;SDS011;37855;53.204;6.568;2023-06-26T10:27:26;8.37;;;2.93;;
51800;SDS011;37855;53.204;6.568;2023-06-26T10:29:58;6.43;;;2.50;;
51800;SDS011;37855;53.204;6.568;2023-06-26T10:32:28;6.65;;;2.50;;
51800;SDS011;37855;53.204;6.568;2023-06-26T10:34:54;6.75;;;2.67;;
51800;SDS011;37855;53.204;6.568;2023-06-26T10:37:21;8.55;;;3.15;;
51800;SDS011;37855;53.204;6.568;2023-06-26T10:40:05;7.07;;;2.67;;
51800;SDS011;37855;53.204;6.568;2023-06-26T10:42:35;5.60;;;2.67;;
51800;SDS011;37855;53.204;6.568;2023-06-26T10:45:13;6.93;;;3.10;;
51800;SDS011;37855;53.204;6.568;2023-06-26T10:47:41;9.15;;;2.70;;
51800;SDS011;37855;53.204;6.568;2023-06-26T10:50:27;6.82;;;2.90;;
51800;SDS011;37855;53.204;6.568;2023-06-26T10:55:36;5.82;;;3.03;;
51800;SDS011;37855;53.204;6.568;2023-06-26T10:58:26;11.20;;;3.10;;
51800;SDS011;37855;53.204;6.568;2023-06-26T11:01:14;9.23;;;3.00;;
51800;SDS011;37855;53.204;6.568;2023-06-26T11:03:43;8.13;;;2.92;;
51800;SDS011;37855;53.204;6.568;2023-06-26T11:06:14;7.93;;;2.60;;
51800;SDS011;37855;53.204;6.568;2023-06-26T11:11:21;7.40;;;2.60;;
51800;SDS011;37855;53.204;6.568;2023-06-26T11:13:47;6.82;;;2.50;;
51800;SDS011;37855;53.204;6.568;2023-06-26T11:16:13;7.38;;;2.58;;
51800;SDS011;37855;53.204;6.568;2023-06-26T11:18:40;9.27;;;2.50;;
51800;SDS011;37855;53.204;6.568;2023-06-26T11:21:10;9.32;;;2.53;;
51800;SDS011;37855;53.204;6.568;2023-06-26T11:23:38;10.60;;;2.83;;
51800;SDS011;37855;53.204;6.568;2023-06-26T11:26:15;7.88;;;2.30;;
51800;SDS011;37855;53.204;6.568;2023-06-26T11:28:46;8.18;;;2.10;;
51800;SDS011;37855;53.204;6.568;2023-06-26T11:31:28;7.60;;;2.40;;
51800;SDS011;37855;53.204;6.568;2023-06-26T11:33:56;6.30;;;2.00;;
51800;SDS011;37855;53.204;6.568;2023-06-26T11:36:24;7.88;;;2.30;;
51800;SDS011;37855;53.204;6.568;2023-06-26T11:39:00;12.50;;;2.13;;
51800;SDS011;37855;53.204;6.568;2023-06-26T11:41:30;13.57;;;2.28;;
51800;SDS011;37855;53.204;6.568;2023-06-26T11:44:06;6.50;;;1.90;;
51800;SDS011;37855;53.204;6.568;2023-06-26T11:46:36;8.98;;;2.17;;
51800;SDS011;37855;53.204;6.568;2023-06-26T11:49:03;7.68;;;2.05;;
51800;SDS011;37855;53.204;6.568;2023-06-26T11:51:30;10.45;;;1.60;;
51800;SDS011;37855;53.204;6.568;2023-06-26T11:53:56;7.63;;;1.60;;
51800;SDS011;37855;53.204;6.568;2023-06-26T11:56:22;8.23;;;1.98;;
51800;SDS011;37855;53.204;6.568;2023-06-26T12:01:26;8.52;;;1.80;;
51800;SDS011;37855;53.204;6.568;2023-06-26T12:04:06;9.00;;;1.90;;
51800;SDS011;37855;53.204;6.568;2023-06-26T12:06:38;6.50;;;1.77;;
51800;SDS011;37855;53.204;6.568;2023-06-26T12:09:10;8.60;;;2.00;;
51800;SDS011;37855;53.204;6.568;2023-06-26T12:11:38;5.67;;;1.77;;
51800;SDS011;37855;53.204;6.568;2023-06-26T12:14:07;14.68;;;2.20;;
51800;SDS011;37855;53.204;6.568;2023-06-26T12:16:34;10.05;;;1.95;;
51800;SDS011;37855;53.204;6.568;2023-06-26T12:19:01;8.23;;;2.05;;
51800;SDS011;37855;53.204;6.568;2023-06-26T12:24:03;10.77;;;2.20;;
51800;SDS011;37855;53.204;6.568;2023-06-26T12:26:30;11.77;;;2.10;;
51800;SDS011;37855;53.204;6.568;2023-06-26T12:29:02;9.30;;;2.15;;
51800;SDS011;37855;53.204;6.568;2023-06-26T12:31:28;9.48;;;1.83;;
51800;SDS011;37855;53.204;6.568;2023-06-26T12:33:54;7.70;;;2.00;;
51800;SDS011;37855;53.204;6.568;2023-06-26T12:36:21;6.83;;;2.37;;
51800;SDS011;37855;53.204;6.568;2023-06-26T12:38:48;7.70;;;1.70;;
51800;SDS011;37855;53.204;6.568;2023-06-26T12:41:15;11.13;;;2.15;;
51800;SDS011;37855;53.204;6.568;2023-06-26T12:43:41;7.65;;;1.75;;
51800;SDS011;37855;53.204;6.568;2023-06-26T12:46:08;6.95;;;1.70;;
51800;SDS011;37855;53.204;6.568;2023-06-26T12:48:41;9.13;;;2.03;;
51800;SDS011;37855;53.204;6.568;2023-06-26T12:51:12;6.40;;;1.50;;
51800;SDS011;37855;53.204;6.568;2023-06-26T12:53:40;6.65;;;2.10;;
51800;SDS011;37855;53.204;6.568;2023-06-26T12:56:06;7.55;;;1.95;;
51800;SDS011;37855;53.204;6.568;2023-06-26T12:58:33;5.47;;;1.60;;
51800;SDS011;37855;53.204;6.568;2023-06-26T13:01:01;7.97;;;2.20;;
51800;SDS011;37855;53.204;6.568;2023-06-26T13:03:30;7.15;;;1.75;;
51800;SDS011;37855;53.204;6.568;2023-06-26T13:05:57;8.60;;;1.65;;
51800;SDS011;37855;53.204;6.568;2023-06-26T13:08:23;6.28;;;1.85;;
51800;SDS011;37855;53.204;6.568;2023-06-26T13:10:49;8.73;;;2.13;;
51800;SDS011;37855;53.204;6.568;2023-06-26T13:13:15;9.73;;;1.70;;
51800;SDS011;37855;53.204;6.568;2023-06-26T13:15:43;8.17;;;1.83;;
51800;SDS011;37855;53.204;6.568;2023-06-26T13:18:09;7.50;;;1.77;;
51800;SDS011;37855;53.204;6.568;2023-06-26T13:20:35;5.10;;;1.67;;
51800;SDS011;37855;53.204;6.568;2023-06-26T13:23:00;8.30;;;1.70;;
51800;SDS011;37855;53.204;6.568;2023-06-26T13:25:26;5.20;;;1.57;;
51800;SDS011;37855;53.204;6.568;2023-06-26T13:27:52;7.15;;;1.65;;
51800;SDS011;37855;53.204;6.568;2023-06-26T13:30:17;8.03;;;1.90;;
51800;SDS011;37855;53.204;6.568;2023-06-26T13:32:43;7.93;;;2.00;;
51800;SDS011;37855;53.204;6.568;2023-06-26T13:35:09;5.37;;;2.00;;
51800;SDS011;37855;53.204;6.568;2023-06-26T13:37:35;6.43;;;1.73;;
51800;SDS011;37855;53.204;6.568;2023-06-26T13:40:02;6.95;;;1.63;;
51800;SDS011;37855;53.204;6.568;2023-06-26T13:42:28;7.82;;;2.00;;
51800;SDS011;37855;53.204;6.568;2023-06-26T13:44:56;14.57;;;1.80;;
51800;SDS011;37855;53.204;6.568;2023-06-26T13:47:21;7.63;;;1.50;;
51800;SDS011;37855;53.204;6.568;2023-06-26T13:49:47;8.53;;;1.90;;
51800;SDS011;37855;53.204;6.568;2023-06-26T13:52:13;5.47;;;1.50;;
51800;SDS011;37855;53.204;6.568;2023-06-26T13:54:39;7.10;;;1.67;;
51800;SDS011;37855;53.204;6.568;2023-06-26T13:57:06;10.37;;;2.00;;
51800;SDS011;37855;53.204;6.568;2023-06-26T13:59:32;9.40;;;2.00;;
51800;SDS011;37855;53.204;6.568;2023-06-26T14:04:34;7.88;;;2.10;;
51800;SDS011;37855;53.204;6.568;2023-06-26T14:07:03;8.60;;;1.85;;
51800;SDS011;37855;53.204;6.568;2023-06-26T14:09:35;9.40;;;2.20;;
51800;SDS011;37855;53.204;6.568;2023-06-26T14:12:01;10.80;;;2.20;;
51800;SDS011;37855;53.204;6.568;2023-06-26T14:14:27;8.25;;;2.17;;
51800;SDS011;37855;53.204;6.568;2023-06-26T14:16:53;6.53;;;2.10;;
51800;SDS011;37855;53.204;6.568;2023-06-26T14:19:19;9.05;;;2.10;;
51800;SDS011;37855;53.204;6.568;2023-06-26T14:21:47;7.88;;;2.17;;
51800;SDS011;37855;53.204;6.568;2023-06-26T14:24:13;12.63;;;2.40;;
51800;SDS011;37855;53.204;6.568;2023-06-26T14:26:39;7.23;;;2.20;;
51800;SDS011;37855;53.204;6.568;2023-06-26T14:29:05;9.60;;;2.33;;
51800;SDS011;37855;53.204;6.568;2023-06-26T14:31:31;9.48;;;1.90;;
51800;SDS011;37855;53.204;6.568;2023-06-26T14:33:57;8.77;;;2.23;;
51800;SDS011;37855;53.204;6.568;2023-06-26T14:36:24;8.27;;;2.33;;
51800;SDS011;37855;53.204;6.568;2023-06-26T14:38:51;8.93;;;2.42;;
51800;SDS011;37855;53.204;6.568;2023-06-26T14:41:17;8.80;;;2.10;;
51800;SDS011;37855;53.204;6.568;2023-06-26T14:43:44;11.13;;;2.47;;
51800;SDS011;37855;53.204;6.568;2023-06-26T14:46:10;10.10;;;2.47;;
51800;SDS011;37855;53.204;6.568;2023-06-26T14:48:36;10.55;;;2.50;;
51800;SDS011;37855;53.204;6.568;2023-06-26T14:51:08;11.18;;;2.10;;
51800;SDS011;37855;53.204;6.568;2023-06-26T14:53:34;8.77;;;2.70;;
51800;SDS011;37855;53.204;6.568;2023-06-26T14:56:12;8.90;;;2.23;;
51800;SDS011;37855;53.204;6.568;2023-06-26T14:59:13;8.20;;;2.33;;
51800;SDS011;37855;53.204;6.568;2023-06-26T15:01:39;9.27;;;2.28;;
51800;SDS011;37855;53.204;6.568;2023-06-26T15:04:05;7.30;;;2.23;;